Hovedside
METAR-TAF:

METAR-TAF

Lufthavner :

Norrköping lufthavn

Norrköping, Sverige

breddegrad: 58-35N, lengdegrad: 016-09E, høyde over havet: 34 m

Gjeldene værobservasjon

Denne rapporten ble laget for 21 minutter siden, klokken 06:50 UTC
Vind 2 kt fra Øst-sørøst
Temperatur 14°C
Luftfuktighet 94%
Trykk 1009 hPa
Sikt 10 km eller mer
Brutte skyer i en høyde av 5300 ft
lett regn

METAR: ESSP 140650Z 11002KT 9999 -RA BKN053 14/13 Q1009

Tid: 09:11 (07:11 UTC)

Varsel

Denne rapporten ble laget for 1 time og 41 minutter siden, klokken 05:30 UTC
Varsel gyldig fra 14. klokken 06 UTC til 14. klokken 15 UTC
Vind 2 kt fra skiftende retning
Sikt 10 km eller mer
Brutte skyer i en høyde av 3000 ft
lett regn
Midlertidig
fra 14. klokken 06 UTC til 14. klokken 15 UTC
Sikt: 4000 m
regn

TAF: ESSP 140530Z 1406/1415 VRB02KT 9999 -RA BKN030 TEMPO 1406/1415 4000 RA

Værobservasjoner og værvarsel for over 4000 flyplasser (METAR- og TAF-rapporter).

Tilgjengelige stasjoner er representert av de røde og gule prikkene på kartet.

Hold musepekeren over prikken for å se navnet på stasjonen.

Klikk så for å se værobservasjoner og -varsler.

For å forandre kartet kan du klikke på den grønne knappen med svart kryss for å zoome inn, på den grønne knappen med strek for å zoome ut, eller på de grønne pilene for å se tilstøtende kart.


METAR-TAF: